createdAt,value
2019-01-05T00:00:09.513Z,41.17
2019-01-05T00:02:39.781Z,43.37
2019-01-05T00:05:12.818Z,53.10
2019-01-05T00:07:59.798Z,55.67
2019-01-05T00:10:35.984Z,73.57
2019-01-05T00:13:09.189Z,69.70
2019-01-05T00:18:48.311Z,76.33
2019-01-05T00:21:33.929Z,72.90
2019-01-05T00:27:20.655Z,69.57
2019-01-05T00:30:03.079Z,72.40
2019-01-05T00:32:49.479Z,74.30
2019-01-05T00:35:38.315Z,66.23
2019-01-05T00:38:26.772Z,72.47
2019-01-05T00:41:02.779Z,72.33
2019-01-05T00:43:49.539Z,75.20
2019-01-05T00:46:29.365Z,76.63
2019-01-05T00:49:08.784Z,86.13
2019-01-05T00:51:43.056Z,86.03
2019-01-05T00:54:13.323Z,91.53
2019-01-05T00:56:58.573Z,86.63
2019-01-05T00:59:29.408Z,85.93
2019-01-05T01:02:12.226Z,105.43
2019-01-05T01:04:44.972Z,100.50
2019-01-05T01:07:18.728Z,108.63
2019-01-05T01:10:01.238Z,105.13
2019-01-05T01:12:32.233Z,124.47
2019-01-05T01:15:18.971Z,138.07
2019-01-05T01:18:05.520Z,154.13
2019-01-05T01:20:35.760Z,122.63
2019-01-05T01:23:22.009Z,108.00
2019-01-05T01:26:07.250Z,102.00
2019-01-05T01:28:55.785Z,98.90
2019-01-05T01:31:31.785Z,91.60
2019-01-05T01:34:02.367Z,68.00
2019-01-05T01:36:35.412Z,65.83
2019-01-05T01:39:16.078Z,69.70
2019-01-05T01:41:58.412Z,60.30
2019-01-05T01:44:44.831Z,53.67
2019-01-05T01:47:31.174Z,53.63
2019-01-05T01:50:13.339Z,56.47
2019-01-05T01:52:59.965Z,55.30
2019-01-05T01:55:46.504Z,52.43
2019-01-05T01:58:33.181Z,52.00
2019-01-05T02:01:03.563Z,53.70
2019-01-05T02:03:34.362Z,47.40
2019-01-05T02:06:20.963Z,44.40
2019-01-05T02:08:55.663Z,41.93
2019-01-05T02:11:31.593Z,45.07
2019-01-05T02:14:15.612Z,45.63
2019-01-05T02:17:10.430Z,41.97
2019-01-05T02:19:55.373Z,37.77
2019-01-05T02:23:06.366Z,37.97
2019-01-05T02:26:20.006Z,35.83
2019-01-05T02:28:59.037Z,35.40
2019-01-05T02:31:38.172Z,36.93
2019-01-05T02:34:47.370Z,36.63
2019-01-05T02:37:56.610Z,40.67
2019-01-05T02:40:50.833Z,34.30
2019-01-05T02:43:44.938Z,42.57
2019-01-05T02:46:36.584Z,42.57
2019-01-05T02:49:45.918Z,43.50
2019-01-05T02:52:47.575Z,39.30
2019-01-05T02:55:45.018Z,37.60
2019-01-05T02:58:52.867Z,41.17
2019-01-05T03:02:11.829Z,36.30
2019-01-05T03:05:05.713Z,39.93
2019-01-05T03:08:19.433Z,37.60
2019-01-05T03:11:27.270Z,44.33
2019-01-05T03:14:21.801Z,39.30
2019-01-05T03:17:35.956Z,46.27
2019-01-05T03:20:34.694Z,38.20
2019-01-05T03:23:13.644Z,40.53
2019-01-05T03:26:05.087Z,34.67
2019-01-05T03:29:17.087Z,37.03
2019-01-05T03:32:08.101Z,38.30
2019-01-05T03:35:02.382Z,38.70
2019-01-05T03:37:48.477Z,35.90
2019-01-05T03:40:42.867Z,37.10
2019-01-05T03:43:36.801Z,37.13
2019-01-05T03:46:41.977Z,38.43
2019-01-05T03:49:42.524Z,38.67
2019-01-05T03:52:24.586Z,37.77
2019-01-05T03:55:30.980Z,56.97
2019-01-05T03:58:20.692Z,41.03
2019-01-05T04:01:06.146Z,39.13
2019-01-05T04:04:02.992Z,38.27
2019-01-05T04:07:27.828Z,52.40
2019-01-05T04:10:35.647Z,45.73
2019-01-05T04:13:41.907Z,47.55
2019-01-05T04:16:44.633Z,40.73
2019-01-05T04:19:37.324Z,39.80
2019-01-05T04:22:22.338Z,40.23
2019-01-05T04:25:22.874Z,43.33
2019-01-05T04:28:01.812Z,38.97
2019-01-05T04:30:52.814Z,37.90
2019-01-05T04:34:02.521Z,40.70
2019-01-05T04:36:54.102Z,37.67
2019-01-05T04:39:30.167Z,43.10
2019-01-05T04:42:12.297Z,38.93
2019-01-05T04:45:31.320Z,37.83
2019-01-05T04:48:31.710Z,41.07
2019-01-05T04:51:39.614Z,36.70
2019-01-05T04:54:45.953Z,45.17
2019-01-05T04:57:35.979Z,45.60
2019-01-05T05:01:00.719Z,44.53
2019-01-05T05:03:43.221Z,40.97
2019-01-05T05:06:34.336Z,48.70
2019-01-05T05:09:40.878Z,41.90
2019-01-05T05:12:38.140Z,42.27
2019-01-05T05:15:46.053Z,40.37
2019-01-05T05:18:38.859Z,52.37
2019-01-05T05:21:34.421Z,47.73
2019-01-05T05:24:49.841Z,46.47
2019-01-05T05:27:38.123Z,47.73
2019-01-05T05:30:20.092Z,53.37
2019-01-05T05:33:10.188Z,50.57
2019-01-05T05:36:04.681Z,54.37
2019-01-05T05:38:57.936Z,54.57
2019-01-05T05:42:20.192Z,49.80
2019-01-05T05:45:38.850Z,46.67
2019-01-05T05:48:50.522Z,55.17
2019-01-05T05:51:57.193Z,49.23
2019-01-05T05:54:39.660Z,46.83
2019-01-05T05:57:29.374Z,50.53
2019-01-05T06:00:22.089Z,54.30
2019-01-05T06:03:19.003Z,50.77
2019-01-05T06:06:27.090Z,49.77
2019-01-05T06:09:35.999Z,52.30
2019-01-05T06:12:38.471Z,48.07
2019-01-05T06:15:35.748Z,52.33
2019-01-05T06:18:28.538Z,50.77
2019-01-05T06:21:36.247Z,55.27
2019-01-05T06:24:47.047Z,52.83
2019-01-05T06:27:36.954Z,57.43
2019-01-05T06:30:28.153Z,54.73
2019-01-05T06:37:12.851Z,74.90
2019-01-05T06:40:16.380Z,69.93
2019-01-05T06:43:16.139Z,71.37
2019-01-05T06:46:13.890Z,64.47
2019-01-05T06:49:11.565Z,53.70
2019-01-05T06:52:14.765Z,63.53
2019-01-05T06:55:12.126Z,59.50
2019-01-05T06:58:27.703Z,56.03
2019-01-05T07:01:33.361Z,54.13
2019-01-05T07:04:53.080Z,57.07
2019-01-05T07:07:50.682Z,50.17
2019-01-05T07:11:15.229Z,43.70
2019-01-05T07:13:59.857Z,44.10
2019-01-05T07:17:09.410Z,45.63
2019-01-05T07:20:22.766Z,45.27
2019-01-05T07:23:09.135Z,46.10
2019-01-05T07:26:09.728Z,56.63
2019-01-05T07:29:23.126Z,51.60
2019-01-05T07:32:13.933Z,45.03
2019-01-05T07:35:06.097Z,40.63
2019-01-05T07:38:09.989Z,45.63
2019-01-05T07:40:56.695Z,43.13
2019-01-05T07:43:58.561Z,41.60
2019-01-05T07:46:57.054Z,41.53
2019-01-05T07:50:04.095Z,40.50
2019-01-05T07:53:24.003Z,42.00
2019-01-05T07:56:15.239Z,46.03
2019-01-05T07:59:06.438Z,38.83
2019-01-05T08:02:11.128Z,38.90
2019-01-05T08:05:09.200Z,41.83
2019-01-05T08:08:15.058Z,45.87
2019-01-05T08:11:08.314Z,40.83
2019-01-05T08:13:50.552Z,65.07
2019-01-05T08:17:05.149Z,61.67
2019-01-05T08:20:10.423Z,51.73
2019-01-05T08:23:13.361Z,43.57
2019-01-05T08:26:08.235Z,72.90
2019-01-05T08:29:22.376Z,36.80
2019-01-05T08:32:27.153Z,35.47
2019-01-05T08:35:19.915Z,44.07
2019-01-05T08:38:27.805Z,37.57
2019-01-05T08:41:37.429Z,36.80
2019-01-05T08:44:47.153Z,37.17
2019-01-05T08:47:56.617Z,41.23
2019-01-05T08:50:47.828Z,32.87
2019-01-05T08:53:55.606Z,30.13
2019-01-05T08:57:03.702Z,30.23
2019-01-05T09:00:26.767Z,24.33
2019-01-05T09:03:31.697Z,26.17
2019-01-05T09:06:26.292Z,26.80
2019-01-05T09:09:08.577Z,24.30
2019-01-05T09:12:05.814Z,26.63
2019-01-05T09:14:50.851Z,27.43
2019-01-05T09:17:48.188Z,28.30
2019-01-05T09:20:47.010Z,29.47
2019-01-05T09:23:59.321Z,65.77
2019-01-05T09:27:05.944Z,36.53
2019-01-05T09:29:48.173Z,24.33
2019-01-05T09:32:45.578Z,27.30
2019-01-05T09:35:30.805Z,24.00
2019-01-05T09:38:44.778Z,25.47
2019-01-05T09:41:45.107Z,23.70
2019-01-05T09:44:49.407Z,26.33
2019-01-05T09:47:49.633Z,23.50
2019-01-05T09:50:42.619Z,22.43
2019-01-05T09:54:04.224Z,19.37
2019-01-05T09:56:53.639Z,27.87
2019-01-05T09:59:53.811Z,25.07
2019-01-05T10:02:52.917Z,23.03
2019-01-05T10:05:56.221Z,22.70
2019-01-05T10:09:05.673Z,22.30
2019-01-05T10:12:28.256Z,18.47
2019-01-05T10:15:30.980Z,21.33
2019-01-05T10:18:31.286Z,20.70
2019-01-05T10:21:42.346Z,18.43
2019-01-05T10:24:55.021Z,23.10
2019-01-05T10:27:38.262Z,26.33
2019-01-05T10:30:37.798Z,19.93
2019-01-05T10:33:27.782Z,19.73
2019-01-05T10:36:23.869Z,58.17
2019-01-05T10:39:22.708Z,18.83
2019-01-05T10:42:01.810Z,21.20
2019-01-05T10:45:08.999Z,14.17
2019-01-05T10:47:55.059Z,13.83
2019-01-05T10:50:44.558Z,15.20
2019-01-05T10:54:10.292Z,13.43
2019-01-05T10:56:55.819Z,15.67
2019-01-05T10:59:54.219Z,16.80
2019-01-05T11:02:42.839Z,13.53
2019-01-05T11:05:43.311Z,16.80
2019-01-05T11:08:49.561Z,15.13
2019-01-05T11:11:55.943Z,16.93
2019-01-05T11:14:48.479Z,15.37
2019-01-05T11:17:21.837Z,17.17
2019-01-05T11:20:21.151Z,17.37
2019-01-05T11:23:27.690Z,19.73
2019-01-05T11:26:34.200Z,15.37
2019-01-05T11:29:29.345Z,14.53
2019-01-05T11:32:25.220Z,16.73
2019-01-05T11:35:40.748Z,16.97
2019-01-05T11:38:45.603Z,19.37
2019-01-05T11:41:39.805Z,17.77
2019-01-05T11:44:44.827Z,21.37
2019-01-05T11:47:38.934Z,16.27
2019-01-05T11:50:30.090Z,15.57
2019-01-05T11:53:37.938Z,15.77
2019-01-05T11:56:26.296Z,22.27
2019-01-05T11:59:26.994Z,39.60
2019-01-05T12:02:45.258Z,24.13
2019-01-05T12:05:40.325Z,26.33
2019-01-05T12:08:31.634Z,23.93
2019-01-05T12:11:07.857Z,22.63
2019-01-05T12:13:59.191Z,26.93
2019-01-05T12:16:44.474Z,22.77
2019-01-05T12:19:38.945Z,27.73
2019-01-05T12:22:32.263Z,27.00
2019-01-05T12:25:40.766Z,29.43
2019-01-05T12:29:04.334Z,20.70
2019-01-05T12:32:27.381Z,20.80
2019-01-05T12:35:35.601Z,17.53
2019-01-05T12:53:54.742Z,24.83
2019-01-05T12:56:44.116Z,25.13
2019-01-05T12:59:44.306Z,25.23
2019-01-05T13:02:45.359Z,28.73
2019-01-05T13:05:40.608Z,24.07
2019-01-05T13:08:40.864Z,36.73
2019-01-05T13:11:58.144Z,20.33
2019-01-05T13:15:02.967Z,48.20
2019-01-05T13:17:57.335Z,33.33
2019-01-05T13:20:57.859Z,26.40
2019-01-05T13:23:39.939Z,31.83
2019-01-05T13:26:37.530Z,24.10
2019-01-05T13:29:37.015Z,27.33
2019-01-05T13:32:35.882Z,27.17
2019-01-05T13:35:20.420Z,29.10
2019-01-05T13:38:12.982Z,28.17
2019-01-05T13:41:22.879Z,28.80
2019-01-05T13:44:15.596Z,42.27
2019-01-05T13:47:00.840Z,34.27
2019-01-05T13:49:45.981Z,29.83
2019-01-05T13:53:26.046Z,36.73
2019-01-05T13:56:00.606Z,34.63
2019-01-05T13:58:43.620Z,39.90
2019-01-05T14:01:25.971Z,41.83
2019-01-05T14:04:00.508Z,42.90
2019-01-05T14:06:46.174Z,105.63
2019-01-05T14:09:22.404Z,81.57
2019-01-05T14:11:58.304Z,43.67
2019-01-05T14:14:33.851Z,46.83
2019-01-05T14:17:07.052Z,45.90
2019-01-05T14:19:37.607Z,62.47
2019-01-05T14:22:24.121Z,76.90
2019-01-05T14:25:04.094Z,62.53
2019-01-05T14:27:40.067Z,51.37
2019-01-05T14:30:22.671Z,47.90
2019-01-05T14:32:58.788Z,52.27
2019-01-05T14:35:29.266Z,39.60
2019-01-05T14:38:05.260Z,58.90
2019-01-05T14:40:50.697Z,58.87
2019-01-05T14:43:23.821Z,68.60
2019-01-05T14:46:09.322Z,63.60
2019-01-05T14:48:42.347Z,58.97
2019-01-05T14:51:15.712Z,60.30
2019-01-05T14:53:52.198Z,64.00
2019-01-05T14:56:32.000Z,48.03
2019-01-05T14:59:11.050Z,47.67
2019-01-05T15:01:44.114Z,50.70
2019-01-05T15:04:17.351Z,57.87
2019-01-05T15:07:04.066Z,54.00
2019-01-05T15:09:43.352Z,44.93
2019-01-05T15:12:32.020Z,51.60
2019-01-05T15:15:05.017Z,59.87
2019-01-05T15:17:51.801Z,57.67
2019-01-05T15:20:31.299Z,66.70
2019-01-05T15:23:02.047Z,52.07
2019-01-05T15:25:48.942Z,56.50
2019-01-05T15:28:31.240Z,57.93
2019-01-05T15:31:05.526Z,62.90
2019-01-05T15:33:39.418Z,79.20
2019-01-05T15:36:15.822Z,74.10
2019-01-05T15:39:02.661Z,76.13
2019-01-05T15:41:49.050Z,71.67
2019-01-05T15:44:35.772Z,79.55
2019-01-05T15:47:08.757Z,76.30
2019-01-05T15:49:45.073Z,88.33
2019-01-05T15:52:26.449Z,82.07
2019-01-05T15:54:58.336Z,76.90
2019-01-05T15:57:46.547Z,78.10
2019-01-05T16:00:32.986Z,71.60
2019-01-05T16:03:06.098Z,80.73
2019-01-05T16:05:53.099Z,55.50
2019-01-05T16:08:26.963Z,58.03
2019-01-05T16:10:59.030Z,57.83
2019-01-05T16:13:32.067Z,69.80
2019-01-05T16:16:20.564Z,59.73
2019-01-05T16:19:07.336Z,47.43
2019-01-05T16:21:37.832Z,47.77
2019-01-05T16:27:20.903Z,49.53
2019-01-05T16:30:00.237Z,33.83
2019-01-05T16:32:45.938Z,40.93
2019-01-05T16:35:25.424Z,55.20
2019-01-05T16:37:59.455Z,66.07
2019-01-05T16:40:34.146Z,55.60
2019-01-05T16:43:10.703Z,57.62
2019-01-05T16:45:40.990Z,50.87
2019-01-05T16:48:20.436Z,46.57
2019-01-05T16:51:07.044Z,48.47
2019-01-05T16:53:40.326Z,44.90
2019-01-05T16:56:13.572Z,47.93
2019-01-05T16:58:43.933Z,42.00
2019-01-05T17:01:30.581Z,36.63
2019-01-05T17:04:19.617Z,40.90
2019-01-05T17:07:03.125Z,40.43
2019-01-05T17:12:18.335Z,51.30
2019-01-05T17:14:58.887Z,46.93
2019-01-05T17:17:43.914Z,40.23
2019-01-05T17:20:16.479Z,41.63
2019-01-05T17:22:47.278Z,50.70
2019-01-05T17:25:29.520Z,39.67
2019-01-05T17:28:02.864Z,51.63
2019-01-05T17:30:50.029Z,45.37
2019-01-05T17:33:23.251Z,50.93
2019-01-05T17:36:02.664Z,56.97
2019-01-05T17:41:49.948Z,63.23
2019-01-05T17:44:38.434Z,55.77
2019-01-05T17:47:27.104Z,49.13
2019-01-05T17:50:06.510Z,50.27
2019-01-05T17:52:53.117Z,50.60
2019-01-05T17:55:26.381Z,71.60
2019-01-05T17:58:13.661Z,67.43
2019-01-05T18:00:47.733Z,70.13
2019-01-05T18:03:34.524Z,57.97
2019-01-05T18:06:07.382Z,56.67
2019-01-05T18:09:09.603Z,57.33
2019-01-05T18:11:52.029Z,53.37
2019-01-05T18:14:37.637Z,47.50
2019-01-05T18:17:10.947Z,51.53
2019-01-05T18:19:59.180Z,51.33
2019-01-05T18:22:30.093Z,46.90
2019-01-05T18:25:00.947Z,46.57
2019-01-05T18:27:38.006Z,53.43
2019-01-05T18:30:26.459Z,49.60
2019-01-05T18:33:14.313Z,47.03
2019-01-05T18:35:50.352Z,44.20
2019-01-05T18:38:36.862Z,39.47
2019-01-05T18:41:10.588Z,42.80
2019-01-05T18:43:57.436Z,41.40
2019-01-05T18:46:43.678Z,60.67
2019-01-05T18:49:16.724Z,55.93
2019-01-05T18:52:02.327Z,56.37
2019-01-05T18:54:45.271Z,61.37
2019-01-05T18:57:26.117Z,55.90
2019-01-05T19:00:05.473Z,64.60
2019-01-05T19:02:38.885Z,106.50
2019-01-05T19:05:25.423Z,57.17
2019-01-05T19:08:07.777Z,45.47
2019-01-05T19:10:54.281Z,43.37
2019-01-05T19:13:24.925Z,42.60
2019-01-05T19:15:58.011Z,49.97
2019-01-05T19:18:31.259Z,47.37
2019-01-05T19:21:20.861Z,46.13
2019-01-05T19:24:07.887Z,43.10
2019-01-05T19:26:38.196Z,47.77
2019-01-05T19:29:26.425Z,43.80
2019-01-05T19:32:02.969Z,48.93
2019-01-05T19:34:50.237Z,50.30
2019-01-05T19:37:20.580Z,56.23
2019-01-05T19:39:50.821Z,51.23
2019-01-05T19:42:24.110Z,55.23
2019-01-05T19:45:11.036Z,59.00
2019-01-05T19:47:58.973Z,58.03
2019-01-05T19:53:38.428Z,46.70
2019-01-05T19:56:08.700Z,54.00
2019-01-05T19:58:55.074Z,48.33
2019-01-05T20:01:31.311Z,47.70
2019-01-05T20:04:01.900Z,52.63
2019-01-05T20:06:39.165Z,55.27
2019-01-05T20:09:12.458Z,68.43
2019-01-05T20:11:51.874Z,64.30
2019-01-05T20:14:37.141Z,68.40
2019-01-05T20:17:10.125Z,73.10
2019-01-05T20:19:41.410Z,70.80
2019-01-05T20:22:27.939Z,67.53
2019-01-05T20:25:04.405Z,55.37
2019-01-05T20:27:46.898Z,58.50
2019-01-05T20:30:33.994Z,61.67
2019-01-05T20:33:22.328Z,59.93
2019-01-05T20:35:55.075Z,62.50
2019-01-05T20:38:37.680Z,63.33
2019-01-05T20:41:07.932Z,60.67
2019-01-05T20:43:50.480Z,65.23
2019-01-05T20:46:35.439Z,62.27
2019-01-05T20:49:06.503Z,60.27
2019-01-05T20:51:42.854Z,77.00
2019-01-05T20:54:28.196Z,68.47
2019-01-05T20:57:01.201Z,65.27
2019-01-05T20:59:31.515Z,57.77
2019-01-05T21:02:17.982Z,73.07
2019-01-05T21:04:58.790Z,70.73
2019-01-05T21:07:45.594Z,76.37
2019-01-05T21:10:15.914Z,72.53
2019-01-05T21:13:03.515Z,67.80
2019-01-05T21:15:47.056Z,72.03
2019-01-05T21:18:34.631Z,63.80
2019-01-05T21:21:07.757Z,56.57
2019-01-05T21:23:41.135Z,53.77
2019-01-05T21:26:12.758Z,113.10
2019-01-05T21:28:54.070Z,67.57
2019-01-05T21:31:43.794Z,44.20
2019-01-05T21:34:14.559Z,43.87
2019-01-05T21:37:03.248Z,44.63
2019-01-05T21:39:42.038Z,39.23
2019-01-05T21:42:28.690Z,41.83
2019-01-05T21:45:15.141Z,38.83
2019-01-05T21:47:48.199Z,38.77
2019-01-05T21:50:21.156Z,34.43
2019-01-05T21:53:07.881Z,39.47
2019-01-05T21:55:53.185Z,40.07
2019-01-05T21:58:26.245Z,44.77
2019-01-05T22:01:05.544Z,50.30
2019-01-05T22:03:39.542Z,50.53
2019-01-05T22:06:26.260Z,47.03
2019-01-05T22:09:02.571Z,50.97
2019-01-05T22:11:39.768Z,45.43
2019-01-05T22:14:25.675Z,51.90
2019-01-05T22:16:58.620Z,93.33
2019-01-05T22:19:31.899Z,48.10
2019-01-05T22:22:02.179Z,47.33
2019-01-05T22:24:50.568Z,43.93
2019-01-05T22:27:22.292Z,49.87
2019-01-05T22:29:52.600Z,48.87
2019-01-05T22:32:25.700Z,45.10
2019-01-05T22:34:55.968Z,51.90
2019-01-05T22:37:45.250Z,46.37
2019-01-05T22:40:41.076Z,41.90
2019-01-05T22:43:27.690Z,45.30
2019-01-05T22:46:13.246Z,44.17
2019-01-05T22:48:57.110Z,44.83
2019-01-05T22:51:42.357Z,54.30
2019-01-05T22:54:15.753Z,57.90
2019-01-05T22:56:52.206Z,69.67
2019-01-05T22:59:38.905Z,71.70
2019-01-05T23:02:15.030Z,70.67
2019-01-05T23:04:54.337Z,67.17
2019-01-05T23:07:40.822Z,70.53
2019-01-05T23:10:26.115Z,79.73
2019-01-05T23:12:56.389Z,73.97
2019-01-05T23:15:42.510Z,82.00
2019-01-05T23:18:12.768Z,69.40
2019-01-05T23:20:45.703Z,71.30
2019-01-05T23:23:32.229Z,76.87
2019-01-05T23:26:20.568Z,79.83
2019-01-05T23:29:00.072Z,72.43
2019-01-05T23:31:30.346Z,74.20
2019-01-05T23:34:09.769Z,76.17
2019-01-05T23:36:40.034Z,69.30
2019-01-05T23:39:26.328Z,73.57
2019-01-05T23:41:56.581Z,69.87
2019-01-05T23:44:43.000Z,69.70
2019-01-05T23:47:16.037Z,56.47
2019-01-05T23:50:02.644Z,55.90
2019-01-05T23:52:32.925Z,53.87
2019-01-05T23:55:08.994Z,59.73
2019-01-05T23:57:39.343Z,60.23
